sensor_id;sensor_type;location;lat;lon;timestamp;temperature;humidity
20349;DHT22;10332;50.208;18.988;2022-09-01T00:00:03;15.40;97.30
20349;DHT22;10332;50.208;18.988;2022-09-01T00:02:55;15.30;97.40
20349;DHT22;10332;50.208;18.988;2022-09-01T00:05:22;15.30;97.90
20349;DHT22;10332;50.208;18.988;2022-09-01T00:07:49;15.30;98.20
20349;DHT22;10332;50.208;18.988;2022-09-01T00:10:17;15.20;98.20
20349;DHT22;10332;50.208;18.988;2022-09-01T00:12:44;15.20;98.40
20349;DHT22;10332;50.208;18.988;2022-09-01T00:15:12;15.20;99.00
20349;DHT22;10332;50.208;18.988;2022-09-01T00:17:40;15.10;98.80
20349;DHT22;10332;50.208;18.988;2022-09-01T00:20:10;15.10;98.60
20349;DHT22;10332;50.208;18.988;2022-09-01T00:22:40;15.10;99.30
20349;DHT22;10332;50.208;18.988;2022-09-01T00:25:08;15.10;99.40
20349;DHT22;10332;50.208;18.988;2022-09-01T00:27:35;15.00;99.30
20349;DHT22;10332;50.208;18.988;2022-09-01T00:30:03;15.10;99.20
20349;DHT22;10332;50.208;18.988;2022-09-01T00:32:31;15.10;99.30
20349;DHT22;10332;50.208;18.988;2022-09-01T00:34:59;15.00;99.10
20349;DHT22;10332;50.208;18.988;2022-09-01T00:37:26;15.00;99.70
20349;DHT22;10332;50.208;18.988;2022-09-01T00:39:54;15.00;99.80
20349;DHT22;10332;50.208;18.988;2022-09-01T00:42:21;15.00;99.90
20349;DHT22;10332;50.208;18.988;2022-09-01T00:44:49;14.90;99.90
20349;DHT22;10332;50.208;18.988;2022-09-01T00:47:16;14.90;99.90
20349;DHT22;10332;50.208;18.988;2022-09-01T00:49:47;14.90;99.90
20349;DHT22;10332;50.208;18.988;2022-09-01T00:52:21;14.90;99.90
20349;DHT22;10332;50.208;18.988;2022-09-01T00:54:57;14.80;99.90
20349;DHT22;10332;50.208;18.988;2022-09-01T00:57:28;14.80;99.90
20349;DHT22;10332;50.208;18.988;2022-09-01T01:00:00;14.80;99.90
20349;DHT22;10332;50.208;18.988;2022-09-01T01:02:32;14.80;99.90
20349;DHT22;10332;50.208;18.988;2022-09-01T01:05:00;14.80;99.90
20349;DHT22;10332;50.208;18.988;2022-09-01T01:07:29;14.70;99.90
20349;DHT22;10332;50.208;18.988;2022-09-01T01:09:56;14.80;99.90
20349;DHT22;10332;50.208;18.988;2022-09-01T01:12:24;14.70;99.90
20349;DHT22;10332;50.208;18.988;2022-09-01T01:14:56;14.70;99.90
20349;DHT22;10332;50.208;18.988;2022-09-01T01:17:24;14.70;99.90
20349;DHT22;10332;50.208;18.988;2022-09-01T01:19:54;14.70;99.90
20349;DHT22;10332;50.208;18.988;2022-09-01T01:25:49;14.60;99.90
20349;DHT22;10332;50.208;18.988;2022-09-01T01:31:01;14.50;99.90
20349;DHT22;10332;50.208;18.988;2022-09-01T01:33:48;14.50;99.90
20349;DHT22;10332;50.208;18.988;2022-09-01T01:36:30;14.50;99.90
20349;DHT22;10332;50.208;18.988;2022-09-01T01:39:12;14.50;99.90
20349;DHT22;10332;50.208;18.988;2022-09-01T01:41:43;14.50;99.90
20349;DHT22;10332;50.208;18.988;2022-09-01T01:44:22;14.40;99.90
20349;DHT22;10332;50.208;18.988;2022-09-01T01:46:55;14.40;99.90
20349;DHT22;10332;50.208;18.988;2022-09-01T01:49:26;14.40;99.90
20349;DHT22;10332;50.208;18.988;2022-09-01T01:51:55;14.30;99.90
20349;DHT22;10332;50.208;18.988;2022-09-01T01:54:24;14.30;99.90
20349;DHT22;10332;50.208;18.988;2022-09-01T01:56:58;14.30;99.90
20349;DHT22;10332;50.208;18.988;2022-09-01T01:59:26;14.30;99.90
20349;DHT22;10332;50.208;18.988;2022-09-01T02:01:55;14.30;99.90
20349;DHT22;10332;50.208;18.988;2022-09-01T02:04:24;14.30;99.90
20349;DHT22;10332;50.208;18.988;2022-09-01T02:06:52;14.30;99.90
20349;DHT22;10332;50.208;18.988;2022-09-01T02:09:19;14.30;99.90
20349;DHT22;10332;50.208;18.988;2022-09-01T02:11:49;14.30;99.90
20349;DHT22;10332;50.208;18.988;2022-09-01T02:14:21;14.30;99.90
20349;DHT22;10332;50.208;18.988;2022-09-01T02:16:49;14.30;99.90
20349;DHT22;10332;50.208;18.988;2022-09-01T02:19:16;14.30;99.90
20349;DHT22;10332;50.208;18.988;2022-09-01T02:21:46;14.20;99.90
20349;DHT22;10332;50.208;18.988;2022-09-01T02:24:21;14.20;99.90
20349;DHT22;10332;50.208;18.988;2022-09-01T02:26:57;14.20;99.90
20349;DHT22;10332;50.208;18.988;2022-09-01T02:29:26;14.20;99.90
20349;DHT22;10332;50.208;18.988;2022-09-01T02:31:55;14.20;99.90
20349;DHT22;10332;50.208;18.988;2022-09-01T02:34:25;14.20;99.90
20349;DHT22;10332;50.208;18.988;2022-09-01T02:36:55;14.20;99.90
20349;DHT22;10332;50.208;18.988;2022-09-01T02:39:26;14.20;99.90
20349;DHT22;10332;50.208;18.988;2022-09-01T02:41:56;14.20;99.90
20349;DHT22;10332;50.208;18.988;2022-09-01T02:44:24;14.20;99.90
20349;DHT22;10332;50.208;18.988;2022-09-01T02:46:53;14.20;99.90
20349;DHT22;10332;50.208;18.988;2022-09-01T02:49:22;14.20;99.90
20349;DHT22;10332;50.208;18.988;2022-09-01T02:51:55;14.20;99.90
20349;DHT22;10332;50.208;18.988;2022-09-01T02:54:26;14.20;99.90
20349;DHT22;10332;50.208;18.988;2022-09-01T02:56:57;14.20;99.90
20349;DHT22;10332;50.208;18.988;2022-09-01T02:59:26;14.20;99.90
20349;DHT22;10332;50.208;18.988;2022-09-01T03:01:56;14.20;99.90
20349;DHT22;10332;50.208;18.988;2022-09-01T03:04:24;14.20;99.90
20349;DHT22;10332;50.208;18.988;2022-09-01T03:07:10;14.10;99.90
20349;DHT22;10332;50.208;18.988;2022-09-01T03:09:39;14.20;99.90
20349;DHT22;10332;50.208;18.988;2022-09-01T03:12:08;14.10;99.90
20349;DHT22;10332;50.208;18.988;2022-09-01T03:14:36;14.10;99.90
20349;DHT22;10332;50.208;18.988;2022-09-01T03:17:03;14.10;99.90
20349;DHT22;10332;50.208;18.988;2022-09-01T03:19:31;14.10;99.90
20349;DHT22;10332;50.208;18.988;2022-09-01T03:22:07;14.10;99.90
20349;DHT22;10332;50.208;18.988;2022-09-01T03:24:35;14.10;99.90
20349;DHT22;10332;50.208;18.988;2022-09-01T03:27:03;14.10;99.90
20349;DHT22;10332;50.208;18.988;2022-09-01T03:29:30;14.10;99.90
20349;DHT22;10332;50.208;18.988;2022-09-01T03:31:57;14.10;99.90
20349;DHT22;10332;50.208;18.988;2022-09-01T03:34:25;14.10;99.90
20349;DHT22;10332;50.208;18.988;2022-09-01T03:36:53;14.10;99.90
20349;DHT22;10332;50.208;18.988;2022-09-01T03:39:21;14.10;99.90
20349;DHT22;10332;50.208;18.988;2022-09-01T03:41:48;14.10;99.90
20349;DHT22;10332;50.208;18.988;2022-09-01T03:44:16;14.10;99.90
20349;DHT22;10332;50.208;18.988;2022-09-01T03:46:43;14.10;99.90
20349;DHT22;10332;50.208;18.988;2022-09-01T03:49:11;14.10;99.90
20349;DHT22;10332;50.208;18.988;2022-09-01T03:51:51;14.10;99.90
20349;DHT22;10332;50.208;18.988;2022-09-01T03:54:22;14.10;99.90
20349;DHT22;10332;50.208;18.988;2022-09-01T03:56:53;14.10;99.90
20349;DHT22;10332;50.208;18.988;2022-09-01T03:59:22;14.10;99.90
20349;DHT22;10332;50.208;18.988;2022-09-01T04:01:51;14.00;99.90
20349;DHT22;10332;50.208;18.988;2022-09-01T04:04:19;14.00;99.90
20349;DHT22;10332;50.208;18.988;2022-09-01T04:06:46;14.00;99.90
20349;DHT22;10332;50.208;18.988;2022-09-01T04:09:14;14.00;99.90
20349;DHT22;10332;50.208;18.988;2022-09-01T04:11:42;14.10;99.90
20349;DHT22;10332;50.208;18.988;2022-09-01T04:14:13;14.00;99.90
20349;DHT22;10332;50.208;18.988;2022-09-01T04:16:42;14.10;99.90
20349;DHT22;10332;50.208;18.988;2022-09-01T04:19:34;14.10;99.90
20349;DHT22;10332;50.208;18.988;2022-09-01T04:22:05;14.10;99.90
20349;DHT22;10332;50.208;18.988;2022-09-01T04:24:34;14.10;99.90
20349;DHT22;10332;50.208;18.988;2022-09-01T04:27:02;14.20;99.90
20349;DHT22;10332;50.208;18.988;2022-09-01T04:29:30;14.20;99.90
20349;DHT22;10332;50.208;18.988;2022-09-01T04:32:06;14.30;99.90
20349;DHT22;10332;50.208;18.988;2022-09-01T04:34:39;14.30;99.90
20349;DHT22;10332;50.208;18.988;2022-09-01T04:37:14;14.40;99.90
20349;DHT22;10332;50.208;18.988;2022-09-01T04:39:52;14.50;99.90
20349;DHT22;10332;50.208;18.988;2022-09-01T04:42:25;14.50;99.90
20349;DHT22;10332;50.208;18.988;2022-09-01T04:44:56;14.60;99.90
20349;DHT22;10332;50.208;18.988;2022-09-01T04:47:24;14.60;99.90
20349;DHT22;10332;50.208;18.988;2022-09-01T04:50:04;14.60;99.90
20349;DHT22;10332;50.208;18.988;2022-09-01T04:52:41;14.70;99.90
20349;DHT22;10332;50.208;18.988;2022-09-01T04:55:14;14.70;99.90
20349;DHT22;10332;50.208;18.988;2022-09-01T04:57:45;14.80;99.90
20349;DHT22;10332;50.208;18.988;2022-09-01T05:00:18;14.90;99.90
20349;DHT22;10332;50.208;18.988;2022-09-01T05:02:55;14.90;99.90
20349;DHT22;10332;50.208;18.988;2022-09-01T05:05:42;15.00;99.90
20349;DHT22;10332;50.208;18.988;2022-09-01T05:08:16;15.10;99.90
20349;DHT22;10332;50.208;18.988;2022-09-01T05:10:51;15.10;99.90
20349;DHT22;10332;50.208;18.988;2022-09-01T05:13:23;15.20;99.90
20349;DHT22;10332;50.208;18.988;2022-09-01T05:16:05;15.20;99.90
20349;DHT22;10332;50.208;18.988;2022-09-01T05:18:42;15.30;99.90
20349;DHT22;10332;50.208;18.988;2022-09-01T05:21:11;15.30;99.90
20349;DHT22;10332;50.208;18.988;2022-09-01T05:23:44;15.40;99.40
20349;DHT22;10332;50.208;18.988;2022-09-01T05:26:16;15.40;99.30
20349;DHT22;10332;50.208;18.988;2022-09-01T05:28:57;15.50;99.30
20349;DHT22;10332;50.208;18.988;2022-09-01T05:31:28;15.60;99.10
20349;DHT22;10332;50.208;18.988;2022-09-01T05:34:01;15.70;98.50
20349;DHT22;10332;50.208;18.988;2022-09-01T05:36:29;15.80;98.00
20349;DHT22;10332;50.208;18.988;2022-09-01T05:38:59;15.80;97.70
20349;DHT22;10332;50.208;18.988;2022-09-01T05:41:28;15.90;97.40
20349;DHT22;10332;50.208;18.988;2022-09-01T05:43:55;16.00;97.40
20349;DHT22;10332;50.208;18.988;2022-09-01T05:46:27;16.00;97.00
20349;DHT22;10332;50.208;18.988;2022-09-01T05:48:56;16.10;96.80
20349;DHT22;10332;50.208;18.988;2022-09-01T05:51:25;16.20;96.60
20349;DHT22;10332;50.208;18.988;2022-09-01T05:54:19;16.20;96.50
20349;DHT22;10332;50.208;18.988;2022-09-01T05:56:49;16.30;96.30
20349;DHT22;10332;50.208;18.988;2022-09-01T05:59:16;16.30;95.90
20349;DHT22;10332;50.208;18.988;2022-09-01T06:01:52;16.30;95.40
20349;DHT22;10332;50.208;18.988;2022-09-01T06:04:22;16.30;95.00
20349;DHT22;10332;50.208;18.988;2022-09-01T06:06:52;16.30;94.80
20349;DHT22;10332;50.208;18.988;2022-09-01T06:09:38;16.30;94.70
20349;DHT22;10332;50.208;18.988;2022-09-01T06:12:08;16.30;94.70
20349;DHT22;10332;50.208;18.988;2022-09-01T06:14:45;16.30;94.40
20349;DHT22;10332;50.208;18.988;2022-09-01T06:17:18;16.30;93.50
20349;DHT22;10332;50.208;18.988;2022-09-01T06:19:52;16.40;93.60
20349;DHT22;10332;50.208;18.988;2022-09-01T06:22:26;16.50;93.50
20349;DHT22;10332;50.208;18.988;2022-09-01T06:24:54;16.70;93.20
20349;DHT22;10332;50.208;18.988;2022-09-01T06:27:28;16.90;91.50
20349;DHT22;10332;50.208;18.988;2022-09-01T06:29:56;17.00;91.10
20349;DHT22;10332;50.208;18.988;2022-09-01T06:32:24;17.30;90.60
20349;DHT22;10332;50.208;18.988;2022-09-01T06:34:53;18.00;89.50
20349;DHT22;10332;50.208;18.988;2022-09-01T06:37:22;18.70;85.70
20349;DHT22;10332;50.208;18.988;2022-09-01T06:39:49;19.60;80.10
20349;DHT22;10332;50.208;18.988;2022-09-01T06:42:17;20.60;73.90
20349;DHT22;10332;50.208;18.988;2022-09-01T06:44:45;21.50;68.70
20349;DHT22;10332;50.208;18.988;2022-09-01T06:47:13;22.30;64.60
20349;DHT22;10332;50.208;18.988;2022-09-01T06:49:41;22.90;59.40
20349;DHT22;10332;50.208;18.988;2022-09-01T06:52:09;23.30;54.30
20349;DHT22;10332;50.208;18.988;2022-09-01T06:54:39;23.50;51.00
20349;DHT22;10332;50.208;18.988;2022-09-01T06:57:10;23.90;46.80
20349;DHT22;10332;50.208;18.988;2022-09-01T06:59:57;24.40;42.30
20349;DHT22;10332;50.208;18.988;2022-09-01T07:02:24;24.80;37.80
20349;DHT22;10332;50.208;18.988;2022-09-01T07:05:12;25.40;33.00
20349;DHT22;10332;50.208;18.988;2022-09-01T07:08:05;26.60;27.70
20349;DHT22;10332;50.208;18.988;2022-09-01T07:10:47;28.70;21.10
20349;DHT22;10332;50.208;18.988;2022-09-01T07:13:36;30.70;9.00
20349;DHT22;10332;50.208;18.988;2022-09-01T07:16:26;32.40;1.00
20349;DHT22;10332;50.208;18.988;2022-09-01T07:19:00;33.70;1.00
20349;DHT22;10332;50.208;18.988;2022-09-01T07:21:29;34.40;1.00
20349;DHT22;10332;50.208;18.988;2022-09-01T07:24:18;33.30;1.00
20349;DHT22;10332;50.208;18.988;2022-09-01T07:26:46;32.40;1.00
20349;DHT22;10332;50.208;18.988;2022-09-01T07:29:17;32.30;1.00
20349;DHT22;10332;50.208;18.988;2022-09-01T07:31:46;31.30;1.00
20349;DHT22;10332;50.208;18.988;2022-09-01T07:34:33;30.80;1.00
20349;DHT22;10332;50.208;18.988;2022-09-01T07:37:05;31.20;1.00
20349;DHT22;10332;50.208;18.988;2022-09-01T07:39:53;31.40;1.00
20349;DHT22;10332;50.208;18.988;2022-09-01T07:42:22;31.70;1.00
20349;DHT22;10332;50.208;18.988;2022-09-01T07:45:11;31.90;1.00
20349;DHT22;10332;50.208;18.988;2022-09-01T07:47:55;33.60;1.00
20349;DHT22;10332;50.208;18.988;2022-09-01T07:50:29;36.80;1.00
20349;DHT22;10332;50.208;18.988;2022-09-01T07:53:22;39.70;1.00
20349;DHT22;10332;50.208;18.988;2022-09-01T07:55:59;42.00;1.00
20349;DHT22;10332;50.208;18.988;2022-09-01T07:58:33;43.40;1.00
20349;DHT22;10332;50.208;18.988;2022-09-01T08:01:04;44.40;1.00
20349;DHT22;10332;50.208;18.988;2022-09-01T08:03:33;44.90;1.00
20349;DHT22;10332;50.208;18.988;2022-09-01T08:06:07;45.50;1.00
20349;DHT22;10332;50.208;18.988;2022-09-01T08:08:37;46.20;1.00
20349;DHT22;10332;50.208;18.988;2022-09-01T08:11:07;46.70;1.00
20349;DHT22;10332;50.208;18.988;2022-09-01T08:13:36;47.20;1.00
20349;DHT22;10332;50.208;18.988;2022-09-01T08:16:09;47.60;1.00
20349;DHT22;10332;50.208;18.988;2022-09-01T08:18:45;47.90;1.00
20349;DHT22;10332;50.208;18.988;2022-09-01T08:21:17;46.70;1.00
20349;DHT22;10332;50.208;18.988;2022-09-01T08:23:50;47.60;1.00
20349;DHT22;10332;50.208;18.988;2022-09-01T08:26:22;48.40;1.00
20349;DHT22;10332;50.208;18.988;2022-09-01T08:28:52;48.00;1.00
20349;DHT22;10332;50.208;18.988;2022-09-01T08:31:23;49.60;1.00
20349;DHT22;10332;50.208;18.988;2022-09-01T08:33:51;44.70;1.00
20349;DHT22;10332;50.208;18.988;2022-09-01T08:36:18;40.50;1.00
20349;DHT22;10332;50.208;18.988;2022-09-01T08:38:51;36.80;1.00
20349;DHT22;10332;50.208;18.988;2022-09-01T08:47:17;35.00;1.00
20349;DHT22;10332;50.208;18.988;2022-09-01T08:49:58;31.90;1.00
20349;DHT22;10332;50.208;18.988;2022-09-01T08:52:35;29.80;1.00
20349;DHT22;10332;50.208;18.988;2022-09-01T08:55:31;34.50;1.00
20349;DHT22;10332;50.208;18.988;2022-09-01T08:58:04;41.10;1.00
20349;DHT22;10332;50.208;18.988;2022-09-01T09:00:39;45.40;1.00
20349;DHT22;10332;50.208;18.988;2022-09-01T09:06:46;51.30;1.00
20349;DHT22;10332;50.208;18.988;2022-09-01T09:09:19;53.40;1.00
20349;DHT22;10332;50.208;18.988;2022-09-01T09:16:23;55.10;1.00
20349;DHT22;10332;50.208;18.988;2022-09-01T09:18:56;55.80;1.00
20349;DHT22;10332;50.208;18.988;2022-09-01T09:21:35;56.80;1.00
20349;DHT22;10332;50.208;18.988;2022-09-01T09:26:50;58.60;1.00
20349;DHT22;10332;50.208;18.988;2022-09-01T09:29:19;57.40;1.00
20349;DHT22;10332;50.208;18.988;2022-09-01T09:32:04;57.60;1.00
20349;DHT22;10332;50.208;18.988;2022-09-01T09:34:49;58.30;1.00
20349;DHT22;10332;50.208;18.988;2022-09-01T09:37:23;58.80;1.00
20349;DHT22;10332;50.208;18.988;2022-09-01T09:40:02;59.20;1.00
20349;DHT22;10332;50.208;18.988;2022-09-01T09:43:00;60.30;1.00
20349;DHT22;10332;50.208;18.988;2022-09-01T09:45:36;61.20;1.00
20349;DHT22;10332;50.208;18.988;2022-09-01T09:48:26;61.40;1.00
20349;DHT22;10332;50.208;18.988;2022-09-01T09:51:23;62.30;1.00
20349;DHT22;10332;50.208;18.988;2022-09-01T09:59:39;62.00;1.00
20349;DHT22;10332;50.208;18.988;2022-09-01T10:02:40;60.80;1.00
20349;DHT22;10332;50.208;18.988;2022-09-01T10:07:56;60.30;1.00
20349;DHT22;10332;50.208;18.988;2022-09-01T10:10:45;61.20;1.00
20349;DHT22;10332;50.208;18.988;2022-09-01T10:13:26;58.90;1.00
20349;DHT22;10332;50.208;18.988;2022-09-01T10:16:06;53.60;1.00
20349;DHT22;10332;50.208;18.988;2022-09-01T10:18:40;53.10;1.00
20349;DHT22;10332;50.208;18.988;2022-09-01T10:21:39;55.80;1.00
20349;DHT22;10332;50.208;18.988;2022-09-01T10:24:30;54.00;1.00
20349;DHT22;10332;50.208;18.988;2022-09-01T10:27:10;49.60;1.00
20349;DHT22;10332;50.208;18.988;2022-09-01T10:32:56;55.30;1.00
20349;DHT22;10332;50.208;18.988;2022-09-01T10:35:42;55.80;1.00
20349;DHT22;10332;50.208;18.988;2022-09-01T10:38:23;51.00;1.00
20349;DHT22;10332;50.208;18.988;2022-09-01T10:40:58;46.40;1.00
20349;DHT22;10332;50.208;18.988;2022-09-01T10:43:42;43.00;1.00
20349;DHT22;10332;50.208;18.988;2022-09-01T10:49:55;38.20;1.00
20349;DHT22;10332;50.208;18.988;2022-09-01T10:51:59;39.60;1.00
20349;DHT22;10332;50.208;18.988;2022-09-01T10:59:44;51.90;1.00
20349;DHT22;10332;50.208;18.988;2022-09-01T11:02:23;53.00;1.00
20349;DHT22;10332;50.208;18.988;2022-09-01T11:07:31;45.10;1.00
20349;DHT22;10332;50.208;18.988;2022-09-01T11:10:34;41.50;1.00
20349;DHT22;10332;50.208;18.988;2022-09-01T11:34:07;51.30;1.00
20349;DHT22;10332;50.208;18.988;2022-09-01T11:47:30;36.40;1.00
20349;DHT22;10332;50.208;18.988;2022-09-01T11:50:17;34.80;1.00
20349;DHT22;10332;50.208;18.988;2022-09-01T11:53:13;33.30;1.00
20349;DHT22;10332;50.208;18.988;2022-09-01T11:55:50;32.20;1.00
20349;DHT22;10332;50.208;18.988;2022-09-01T12:01:55;30.80;1.00
20349;DHT22;10332;50.208;18.988;2022-09-01T12:04:22;30.30;1.00
20349;DHT22;10332;50.208;18.988;2022-09-01T12:07:22;29.90;1.00
20349;DHT22;10332;50.208;18.988;2022-09-01T12:10:31;29.80;1.00
20349;DHT22;10332;50.208;18.988;2022-09-01T12:15:40;38.60;1.00
20349;DHT22;10332;50.208;18.988;2022-09-01T12:18:36;39.70;1.00
20349;DHT22;10332;50.208;18.988;2022-09-01T12:21:23;37.90;1.00
20349;DHT22;10332;50.208;18.988;2022-09-01T12:26:52;34.60;1.00
20349;DHT22;10332;50.208;18.988;2022-09-01T12:29:21;33.40;1.00
20349;DHT22;10332;50.208;18.988;2022-09-01T12:31:50;32.60;1.00
20349;DHT22;10332;50.208;18.988;2022-09-01T12:37:25;31.60;1.00
20349;DHT22;10332;50.208;18.988;2022-09-01T12:39:56;31.50;1.00
20349;DHT22;10332;50.208;18.988;2022-09-01T12:42:31;32.20;1.00
20349;DHT22;10332;50.208;18.988;2022-09-01T12:45:09;31.90;1.00
20349;DHT22;10332;50.208;18.988;2022-09-01T12:52:46;29.80;1.00
20349;DHT22;10332;50.208;18.988;2022-09-01T12:55:17;29.40;1.00
20349;DHT22;10332;50.208;18.988;2022-09-01T12:58:11;29.00;1.00
20349;DHT22;10332;50.208;18.988;2022-09-01T13:00:58;28.60;1.00
20349;DHT22;10332;50.208;18.988;2022-09-01T13:04:06;28.20;1.00
20349;DHT22;10332;50.208;18.988;2022-09-01T13:06:37;27.90;1.00
20349;DHT22;10332;50.208;18.988;2022-09-01T13:09:05;27.70;1.00
20349;DHT22;10332;50.208;18.988;2022-09-01T13:11:33;27.60;1.00
20349;DHT22;10332;50.208;18.988;2022-09-01T13:14:20;27.70;1.00
20349;DHT22;10332;50.208;18.988;2022-09-01T13:16:51;27.60;1.00
20349;DHT22;10332;50.208;18.988;2022-09-01T13:19:18;27.90;1.00
20349;DHT22;10332;50.208;18.988;2022-09-01T13:21:54;30.50;1.00
20349;DHT22;10332;50.208;18.988;2022-09-01T13:24:22;35.10;1.00
20349;DHT22;10332;50.208;18.988;2022-09-01T13:26:56;39.20;1.00
20349;DHT22;10332;50.208;18.988;2022-09-01T13:29:43;40.90;1.00
20349;DHT22;10332;50.208;18.988;2022-09-01T13:32:13;38.90;1.00
20349;DHT22;10332;50.208;18.988;2022-09-01T13:34:46;36.90;1.00
20349;DHT22;10332;50.208;18.988;2022-09-01T13:37:18;35.30;1.00
20349;DHT22;10332;50.208;18.988;2022-09-01T13:39:47;37.30;1.00
20349;DHT22;10332;50.208;18.988;2022-09-01T13:42:15;40.70;1.00
20349;DHT22;10332;50.208;18.988;2022-09-01T13:44:44;42.80;1.00
20349;DHT22;10332;50.208;18.988;2022-09-01T13:47:18;43.90;1.00
20349;DHT22;10332;50.208;18.988;2022-09-01T13:50:06;41.60;1.00
20349;DHT22;10332;50.208;18.988;2022-09-01T13:52:40;38.10;1.00
20349;DHT22;10332;50.208;18.988;2022-09-01T13:55:28;35.50;1.00
20349;DHT22;10332;50.208;18.988;2022-09-01T13:57:57;34.40;1.00
20349;DHT22;10332;50.208;18.988;2022-09-01T14:00:31;37.30;1.00
20349;DHT22;10332;50.208;18.988;2022-09-01T14:03:08;41.00;1.00
20349;DHT22;10332;50.208;18.988;2022-09-01T14:05:41;42.70;1.00
20349;DHT22;10332;50.208;18.988;2022-09-01T14:08:11;40.30;1.00
20349;DHT22;10332;50.208;18.988;2022-09-01T14:10:43;37.70;1.00
20349;DHT22;10332;50.208;18.988;2022-09-01T14:13:13;36.00;1.00
20349;DHT22;10332;50.208;18.988;2022-09-01T14:15:42;37.80;1.00
20349;DHT22;10332;50.208;18.988;2022-09-01T14:18:11;39.10;1.00
20349;DHT22;10332;50.208;18.988;2022-09-01T14:20:43;38.30;1.00
20349;DHT22;10332;50.208;18.988;2022-09-01T14:23:14;39.60;1.00
20349;DHT22;10332;50.208;18.988;2022-09-01T14:25:48;41.70;1.00
20349;DHT22;10332;50.208;18.988;2022-09-01T14:28:18;43.20;1.00
20349;DHT22;10332;50.208;18.988;2022-09-01T14:30:48;44.30;1.00
20349;DHT22;10332;50.208;18.988;2022-09-01T14:33:16;43.50;1.00
20349;DHT22;10332;50.208;18.988;2022-09-01T14:35:46;41.20;1.00
20349;DHT22;10332;50.208;18.988;2022-09-01T14:38:14;38.90;1.00
20349;DHT22;10332;50.208;18.988;2022-09-01T14:40:46;37.10;1.00
20349;DHT22;10332;50.208;18.988;2022-09-01T14:43:14;35.60;1.00
20349;DHT22;10332;50.208;18.988;2022-09-01T14:45:43;34.00;1.00
20349;DHT22;10332;50.208;18.988;2022-09-01T14:48:16;32.80;1.00
20349;DHT22;10332;50.208;18.988;2022-09-01T14:50:47;31.80;1.00
20349;DHT22;10332;50.208;18.988;2022-09-01T14:53:17;31.00;1.00
20349;DHT22;10332;50.208;18.988;2022-09-01T14:55:45;30.30;1.00
20349;DHT22;10332;50.208;18.988;2022-09-01T14:58:12;29.80;1.00
20349;DHT22;10332;50.208;18.988;2022-09-01T15:00:40;29.30;1.00
20349;DHT22;10332;50.208;18.988;2022-09-01T15:03:14;28.70;1.00
20349;DHT22;10332;50.208;18.988;2022-09-01T15:05:48;28.30;1.00
20349;DHT22;10332;50.208;18.988;2022-09-01T15:08:17;27.80;1.00
20349;DHT22;10332;50.208;18.988;2022-09-01T15:10:44;27.30;1.00
20349;DHT22;10332;50.208;18.988;2022-09-01T15:13:12;27.10;1.00
20349;DHT22;10332;50.208;18.988;2022-09-01T15:15:39;26.80;1.00
20349;DHT22;10332;50.208;18.988;2022-09-01T15:18:07;26.40;1.00
20349;DHT22;10332;50.208;18.988;2022-09-01T15:20:38;26.00;1.00
20349;DHT22;10332;50.208;18.988;2022-09-01T15:23:17;25.60;1.00
20349;DHT22;10332;50.208;18.988;2022-09-01T15:25:49;25.00;1.00
20349;DHT22;10332;50.208;18.988;2022-09-01T15:28:18;24.60;1.00
20349;DHT22;10332;50.208;18.988;2022-09-01T15:30:46;24.20;1.00
20349;DHT22;10332;50.208;18.988;2022-09-01T15:33:13;24.00;1.00
20349;DHT22;10332;50.208;18.988;2022-09-01T15:35:43;24.00;1.00
20349;DHT22;10332;50.208;18.988;2022-09-01T15:38:13;24.00;1.00
20349;DHT22;10332;50.208;18.988;2022-09-01T15:40:46;23.90;1.00
20349;DHT22;10332;50.208;18.988;2022-09-01T15:43:24;23.80;1.00
20349;DHT22;10332;50.208;18.988;2022-09-01T15:45:52;23.60;1.00
20349;DHT22;10332;50.208;18.988;2022-09-01T15:48:20;23.50;1.00
20349;DHT22;10332;50.208;18.988;2022-09-01T15:50:48;23.40;1.00
20349;DHT22;10332;50.208;18.988;2022-09-01T15:53:15;23.40;1.00
20349;DHT22;10332;50.208;18.988;2022-09-01T15:55:45;23.40;1.00
20349;DHT22;10332;50.208;18.988;2022-09-01T15:58:16;23.40;1.00
20349;DHT22;10332;50.208;18.988;2022-09-01T16:00:44;23.40;1.00
20349;DHT22;10332;50.208;18.988;2022-09-01T16:03:12;23.30;1.00
20349;DHT22;10332;50.208;18.988;2022-09-01T16:05:40;23.20;1.00
20349;DHT22;10332;50.208;18.988;2022-09-01T16:08:08;23.00;1.00
20349;DHT22;10332;50.208;18.988;2022-09-01T16:10:39;22.80;1.00
20349;DHT22;10332;50.208;18.988;2022-09-01T16:13:08;22.60;1.00
20349;DHT22;10332;50.208;18.988;2022-09-01T16:24:50;22.20;1.00
20349;DHT22;10332;50.208;18.988;2022-09-01T16:27:22;22.10;1.00
20349;DHT22;10332;50.208;18.988;2022-09-01T16:30:05;22.00;1.00
20349;DHT22;10332;50.208;18.988;2022-09-01T16:32:40;21.80;1.00
20349;DHT22;10332;50.208;18.988;2022-09-01T16:35:12;21.70;1.00
20349;DHT22;10332;50.208;18.988;2022-09-01T16:55:46;20.70;1.00
20349;DHT22;10332;50.208;18.988;2022-09-01T16:58:39;20.70;1.00
20349;DHT22;10332;50.208;18.988;2022-09-01T17:04:39;20.40;1.00
20349;DHT22;10332;50.208;18.988;2022-09-01T17:07:35;20.30;1.00
20349;DHT22;10332;50.208;18.988;2022-09-01T17:12:55;20.10;1.00
20349;DHT22;10332;50.208;18.988;2022-09-01T17:15:31;19.90;1.00
20349;DHT22;10332;50.208;18.988;2022-09-01T17:18:17;19.80;1.00
20349;DHT22;10332;50.208;18.988;2022-09-01T17:21:06;19.60;1.00
20349;DHT22;10332;50.208;18.988;2022-09-01T17:24:04;19.50;1.00
20349;DHT22;10332;50.208;18.988;2022-09-01T17:26:41;19.40;1.00
20349;DHT22;10332;50.208;18.988;2022-09-01T17:29:17;19.40;1.00
20349;DHT22;10332;50.208;18.988;2022-09-01T17:37:52;19.00;1.00
20349;DHT22;10332;50.208;18.988;2022-09-01T17:40:30;18.90;1.00
20349;DHT22;10332;50.208;18.988;2022-09-01T17:52:52;18.40;1.00
20349;DHT22;10332;50.208;18.988;2022-09-01T17:56:00;18.30;1.00
20349;DHT22;10332;50.208;18.988;2022-09-01T18:07:43;17.80;1.00
20349;DHT22;10332;50.208;18.988;2022-09-01T18:10:14;17.70;1.00
20349;DHT22;10332;50.208;18.988;2022-09-01T18:12:54;17.60;1.00
20349;DHT22;10332;50.208;18.988;2022-09-01T18:15:27;17.60;1.00
20349;DHT22;10332;50.208;18.988;2022-09-01T18:18:19;17.40;1.00
20349;DHT22;10332;50.208;18.988;2022-09-01T18:24:17;17.30;1.00
20349;DHT22;10332;50.208;18.988;2022-09-01T18:26:49;17.20;1.00
20349;DHT22;10332;50.208;18.988;2022-09-01T18:29:18;17.20;1.00
20349;DHT22;10332;50.208;18.988;2022-09-01T18:34:53;17.10;1.00
20349;DHT22;10332;50.208;18.988;2022-09-01T18:38:03;17.00;1.00
20349;DHT22;10332;50.208;18.988;2022-09-01T18:43:42;17.00;1.00
20349;DHT22;10332;50.208;18.988;2022-09-01T18:57:52;16.80;1.00
20349;DHT22;10332;50.208;18.988;2022-09-01T19:00:35;16.80;1.00